createdAt,value
2022-12-15T00:01:58.795Z,11.37
2022-12-15T00:04:43.999Z,11.13
2022-12-15T00:07:29.131Z,11.15
2022-12-15T00:10:14.322Z,11.65
2022-12-15T00:12:59.308Z,12.02
2022-12-15T00:15:44.611Z,11.02
2022-12-15T00:18:29.507Z,11.30
2022-12-15T00:21:18.617Z,12.00
2022-12-15T00:24:03.803Z,10.77
2022-12-15T00:26:48.945Z,11.43
2022-12-15T00:29:34.227Z,11.13
2022-12-15T00:32:19.357Z,10.82
2022-12-15T00:35:04.083Z,12.57
2022-12-15T00:37:49.273Z,12.43
2022-12-15T00:40:15.850Z,12.25
2022-12-15T00:42:42.389Z,12.45
2022-12-15T00:45:09.307Z,12.32
2022-12-15T00:47:36.349Z,11.45
2022-12-15T00:50:23.885Z,12.65
2022-12-15T00:53:09.026Z,13.18
2022-12-15T00:55:53.962Z,11.30
2022-12-15T00:58:39.047Z,9.60
2022-12-15T01:01:25.939Z,11.35
2022-12-15T01:04:11.177Z,10.85
2022-12-15T01:06:56.377Z,10.30
2022-12-15T01:09:41.949Z,12.13
2022-12-15T01:12:27.171Z,10.73
2022-12-15T01:15:11.990Z,11.65
2022-12-15T01:17:57.192Z,10.73
2022-12-15T01:20:23.737Z,11.20
2022-12-15T01:22:53.054Z,12.82
2022-12-15T01:25:21.921Z,12.25
2022-12-15T01:27:48.928Z,12.77
2022-12-15T01:30:18.084Z,12.00
2022-12-15T01:32:46.403Z,13.00
2022-12-15T01:35:13.156Z,12.80
2022-12-15T01:37:39.672Z,12.13
2022-12-15T01:40:26.226Z,11.32
2022-12-15T01:42:53.182Z,14.23
2022-12-15T01:45:28.669Z,13.07
2022-12-15T01:47:59.240Z,15.57
2022-12-15T01:50:26.770Z,14.02
2022-12-15T01:52:55.080Z,12.55
2022-12-15T01:55:24.468Z,13.98
2022-12-15T01:57:54.632Z,13.90
2022-12-15T02:00:21.197Z,13.50
2022-12-15T02:02:48.095Z,13.13
2022-12-15T02:05:14.781Z,14.27
2022-12-15T02:07:42.699Z,13.68
2022-12-15T02:10:11.155Z,13.40
2022-12-15T02:12:40.612Z,11.98
2022-12-15T02:15:32.160Z,12.85
2022-12-15T02:18:29.701Z,13.98
2022-12-15T02:21:02.703Z,12.68
2022-12-15T02:23:49.044Z,11.50
2022-12-15T02:26:43.211Z,10.80
2022-12-15T02:29:37.775Z,13.15
2022-12-15T02:32:16.494Z,13.38
2022-12-15T02:34:58.417Z,12.15
2022-12-15T02:37:32.946Z,8.70
2022-12-15T02:39:59.796Z,13.82
2022-12-15T02:42:29.897Z,12.77
2022-12-15T02:44:58.730Z,12.00
2022-12-15T02:47:45.961Z,11.35
2022-12-15T02:50:43.488Z,12.52
2022-12-15T02:53:47.655Z,12.20
2022-12-15T02:56:43.411Z,12.43
2022-12-15T02:59:36.650Z,11.50
2022-12-15T03:02:06.478Z,13.05
2022-12-15T03:04:33.886Z,12.73
2022-12-15T03:07:08.170Z,12.73
2022-12-15T03:09:34.680Z,12.98
2022-12-15T03:12:01.558Z,13.23
2022-12-15T03:14:28.170Z,13.15
2022-12-15T03:16:54.902Z,13.23
2022-12-15T03:19:21.520Z,13.25
2022-12-15T03:21:48.018Z,14.27
2022-12-15T03:24:14.574Z,12.93
2022-12-15T03:26:41.697Z,13.80
2022-12-15T03:29:08.294Z,14.13
2022-12-15T03:31:35.065Z,13.65
2022-12-15T03:34:02.054Z,11.93
2022-12-15T03:36:28.608Z,12.80
2022-12-15T03:38:55.099Z,12.30
2022-12-15T03:41:21.606Z,12.27
2022-12-15T03:43:49.841Z,13.23
2022-12-15T03:46:16.818Z,12.68
2022-12-15T03:48:43.639Z,12.77
2022-12-15T03:51:10.462Z,12.98
2022-12-15T03:53:36.933Z,12.32
2022-12-15T03:56:03.489Z,10.98
2022-12-15T03:58:30.288Z,14.45
2022-12-15T04:00:57.000Z,13.75
2022-12-15T04:03:23.674Z,12.23
2022-12-15T04:05:51.257Z,14.48
2022-12-15T04:08:17.719Z,13.45
2022-12-15T04:10:44.263Z,12.93
2022-12-15T04:13:12.037Z,13.15
2022-12-15T04:15:40.439Z,13.57
2022-12-15T04:18:10.622Z,13.05
2022-12-15T04:20:39.058Z,15.70
2022-12-15T04:23:07.819Z,14.27
2022-12-15T04:25:54.298Z,14.70
2022-12-15T04:28:39.492Z,14.85
2022-12-15T04:31:30.760Z,12.98
2022-12-15T04:34:25.174Z,13.48
2022-12-15T04:37:12.392Z,13.60
2022-12-15T04:40:02.338Z,13.93
2022-12-15T04:42:49.225Z,15.27
2022-12-15T04:45:37.307Z,13.88
2022-12-15T04:48:23.301Z,12.35
2022-12-15T04:51:08.089Z,13.82
2022-12-15T04:53:53.101Z,14.25
2022-12-15T04:56:38.263Z,15.93
2022-12-15T04:59:23.525Z,13.82
2022-12-15T05:02:08.878Z,14.40
2022-12-15T05:04:54.346Z,16.08
2022-12-15T05:07:39.319Z,15.02
2022-12-15T05:10:25.005Z,15.27
2022-12-15T05:13:09.866Z,15.23
2022-12-15T05:15:55.197Z,13.68
2022-12-15T05:18:40.323Z,15.65
2022-12-15T05:21:25.475Z,14.60
2022-12-15T05:24:10.948Z,16.92
2022-12-15T05:26:56.647Z,17.02
2022-12-15T05:29:41.668Z,16.50
2022-12-15T05:32:08.423Z,15.00
2022-12-15T05:34:36.286Z,15.98
2022-12-15T05:37:04.854Z,14.75
2022-12-15T05:39:31.471Z,14.57
2022-12-15T05:41:57.942Z,15.35
2022-12-15T05:44:25.552Z,15.52
2022-12-15T05:46:52.647Z,16.42
2022-12-15T05:49:19.303Z,16.45
2022-12-15T05:51:47.634Z,14.27
2022-12-15T05:54:17.352Z,14.52
2022-12-15T05:56:44.980Z,16.02
2022-12-15T05:59:11.566Z,17.20
2022-12-15T06:01:38.277Z,17.08
2022-12-15T06:04:05.235Z,16.23
2022-12-15T06:06:32.434Z,16.35
2022-12-15T06:08:58.947Z,14.98
2022-12-15T06:11:25.444Z,14.27
2022-12-15T06:13:52.998Z,14.57
2022-12-15T06:16:21.101Z,15.43
2022-12-15T06:18:50.499Z,15.13
2022-12-15T06:21:19.986Z,17.27
2022-12-15T06:23:47.914Z,16.80
2022-12-15T06:26:20.542Z,15.40
2022-12-15T06:28:48.156Z,14.10
2022-12-15T06:31:16.216Z,17.58
2022-12-15T06:33:42.700Z,15.55
2022-12-15T06:36:15.232Z,16.08
2022-12-15T06:38:43.540Z,17.33
2022-12-15T06:41:12.765Z,15.88
2022-12-15T06:43:39.747Z,15.05
2022-12-15T06:46:06.822Z,17.08
2022-12-15T06:48:33.368Z,16.42
2022-12-15T06:51:05.220Z,15.40
2022-12-15T06:53:32.583Z,14.60
2022-12-15T06:56:01.712Z,15.73
2022-12-15T06:58:28.250Z,16.00
2022-12-15T07:00:56.233Z,17.58
2022-12-15T07:03:22.939Z,20.00
2022-12-15T07:06:01.369Z,19.33
2022-12-15T07:08:32.174Z,17.42
2022-12-15T07:11:03.452Z,18.75
2022-12-15T07:13:30.917Z,16.60
2022-12-15T07:16:06.158Z,17.45
2022-12-15T07:18:32.665Z,18.05
2022-12-15T07:21:07.423Z,18.17
2022-12-15T07:23:53.358Z,17.42
2022-12-15T07:26:20.979Z,18.23
2022-12-15T07:28:47.606Z,19.42
2022-12-15T07:31:15.441Z,20.33
2022-12-15T07:33:42.716Z,19.52
2022-12-15T07:36:10.990Z,18.35
2022-12-15T07:38:38.122Z,19.50
2022-12-15T07:41:06.945Z,21.25
2022-12-15T07:43:34.374Z,20.88
2022-12-15T07:46:03.390Z,20.05
2022-12-15T07:48:30.302Z,18.05
2022-12-15T07:51:08.310Z,21.55
2022-12-15T07:53:38.191Z,20.65
2022-12-15T07:56:08.924Z,19.30
2022-12-15T07:58:37.111Z,15.27
2022-12-15T08:01:07.048Z,19.92
2022-12-15T08:03:34.656Z,21.00
2022-12-15T08:06:05.459Z,23.92
2022-12-15T08:08:32.927Z,28.65
2022-12-15T08:11:03.747Z,21.73
2022-12-15T08:14:01.215Z,23.25
2022-12-15T08:16:17.057Z,21.23
2022-12-15T08:18:43.661Z,21.55
2022-12-15T08:21:11.669Z,23.67
2022-12-15T08:23:40.183Z,21.75
2022-12-15T08:26:09.735Z,25.02
2022-12-15T08:28:38.070Z,22.90
2022-12-15T08:31:09.847Z,23.45
2022-12-15T08:33:36.813Z,18.42
2022-12-15T08:36:06.632Z,22.92
2022-12-15T08:38:34.727Z,22.58
2022-12-15T08:41:13.564Z,23.60
2022-12-15T08:43:47.451Z,24.38
2022-12-15T08:46:24.817Z,26.83
2022-12-15T08:48:52.850Z,24.75
2022-12-15T08:51:21.211Z,22.90
2022-12-15T08:53:48.818Z,22.88
2022-12-15T08:56:19.037Z,24.38
2022-12-15T08:58:47.112Z,23.83
2022-12-15T09:01:23.403Z,24.95
2022-12-15T09:03:53.665Z,22.90
2022-12-15T09:06:34.982Z,22.17
2022-12-15T09:09:04.837Z,22.35
2022-12-15T09:11:31.438Z,23.10
2022-12-15T09:13:58.476Z,24.13
2022-12-15T09:16:25.636Z,25.50
2022-12-15T09:18:55.834Z,24.05
2022-12-15T09:21:25.959Z,24.38
2022-12-15T09:23:55.247Z,23.00
2022-12-15T09:26:23.121Z,23.92
2022-12-15T09:28:50.925Z,24.33
2022-12-15T09:31:21.682Z,25.42
2022-12-15T09:33:49.965Z,22.25
2022-12-15T09:36:16.854Z,23.13
2022-12-15T09:38:44.050Z,20.45
2022-12-15T09:41:13.275Z,23.30
2022-12-15T09:43:50.476Z,22.20
2022-12-15T09:46:27.675Z,20.98
2022-12-15T09:48:58.161Z,22.00
2022-12-15T09:51:39.302Z,21.02
2022-12-15T09:54:06.775Z,21.27
2022-12-15T09:56:44.322Z,19.63
2022-12-15T09:59:37.926Z,24.27
2022-12-15T10:02:25.599Z,20.75
2022-12-15T10:05:10.166Z,21.15
2022-12-15T10:07:46.577Z,21.92
2022-12-15T10:10:38.836Z,22.17
2022-12-15T10:13:24.930Z,20.75
2022-12-15T10:15:58.738Z,21.17
2022-12-15T10:18:34.953Z,24.00
2022-12-15T10:21:02.305Z,21.45
2022-12-15T10:23:30.526Z,22.65
2022-12-15T10:26:21.245Z,20.50
2022-12-15T10:29:16.733Z,21.70
2022-12-15T10:31:49.428Z,20.58
2022-12-15T10:36:52.375Z,19.88
2022-12-15T10:39:20.913Z,20.85
2022-12-15T10:42:15.148Z,20.83
2022-12-15T10:44:44.963Z,21.10
2022-12-15T10:47:29.570Z,20.60
2022-12-15T10:50:20.976Z,20.40
2022-12-15T10:52:50.992Z,21.35
2022-12-15T10:55:37.125Z,19.98
2022-12-15T10:58:15.849Z,19.27
2022-12-15T11:00:42.386Z,21.58
2022-12-15T11:03:22.640Z,21.98
2022-12-15T11:05:55.131Z,21.63
2022-12-15T11:08:22.850Z,20.38
2022-12-15T11:11:11.043Z,21.23
2022-12-15T11:13:38.557Z,24.08
2022-12-15T11:16:16.561Z,23.17
2022-12-15T11:19:11.790Z,23.10
2022-12-15T11:21:53.123Z,22.77
2022-12-15T11:24:28.581Z,21.67
2022-12-15T11:27:01.888Z,23.98
2022-12-15T11:29:34.442Z,21.90
2022-12-15T11:32:06.679Z,23.25
2022-12-15T11:34:38.257Z,22.67
2022-12-15T11:37:18.075Z,23.10
2022-12-15T11:40:18.817Z,23.05
2022-12-15T11:43:00.586Z,22.70
2022-12-15T11:45:41.913Z,23.77
2022-12-15T11:48:17.591Z,23.75
2022-12-15T11:51:02.601Z,23.08
2022-12-15T11:54:06.563Z,22.88
2022-12-15T11:56:43.716Z,22.90
2022-12-15T11:59:34.749Z,22.88
2022-12-15T12:02:11.512Z,22.98
2022-12-15T12:05:03.713Z,23.58
2022-12-15T12:07:45.241Z,23.77
2022-12-15T12:10:27.337Z,17.27
2022-12-15T12:13:28.471Z,22.80
2022-12-15T12:16:10.751Z,23.65
2022-12-15T12:18:50.438Z,22.73
2022-12-15T12:21:25.469Z,23.65
2022-12-15T12:24:10.249Z,24.75
2022-12-15T12:26:46.082Z,25.58
2022-12-15T12:29:25.392Z,24.20
2022-12-15T12:32:02.192Z,22.73
2022-12-15T12:34:52.583Z,24.20
2022-12-15T12:37:49.650Z,24.85
2022-12-15T12:40:24.826Z,24.33
2022-12-15T12:42:58.769Z,23.52
2022-12-15T12:45:47.162Z,23.42
2022-12-15T12:48:27.795Z,22.65
2022-12-15T12:51:16.626Z,22.52
2022-12-15T12:53:43.136Z,21.63
2022-12-15T12:56:31.468Z,21.15
2022-12-15T12:58:58.124Z,22.58
2022-12-15T13:01:30.933Z,22.42
2022-12-15T13:04:12.797Z,21.85
2022-12-15T13:06:39.204Z,20.17
2022-12-15T13:09:17.934Z,22.90
2022-12-15T13:11:55.731Z,21.10
2022-12-15T13:14:40.591Z,22.38
2022-12-15T13:17:26.635Z,22.52
2022-12-15T13:19:56.600Z,22.25
2022-12-15T13:22:36.325Z,22.70
2022-12-15T13:25:39.084Z,21.17
2022-12-15T13:28:34.760Z,21.92
2022-12-15T13:31:16.728Z,22.20
2022-12-15T13:33:49.554Z,22.90
2022-12-15T13:39:01.185Z,22.38
2022-12-15T13:41:27.671Z,23.58
2022-12-15T13:43:55.180Z,22.88
2022-12-15T13:46:29.434Z,22.95
2022-12-15T13:49:14.050Z,22.42
2022-12-15T13:51:45.802Z,23.15
2022-12-15T13:54:25.891Z,23.38
2022-12-15T13:57:05.200Z,23.00
2022-12-15T13:59:37.926Z,23.40
2022-12-15T14:02:23.331Z,22.70
2022-12-15T14:05:09.988Z,22.45
2022-12-15T14:07:36.539Z,22.88
2022-12-15T14:10:07.384Z,21.60
2022-12-15T14:12:33.967Z,22.70
2022-12-15T14:15:01.305Z,21.73
2022-12-15T14:17:32.665Z,23.65
2022-12-15T14:20:11.504Z,22.10
2022-12-15T14:22:43.016Z,22.05
2022-12-15T14:25:21.950Z,21.63
2022-12-15T14:27:50.854Z,21.17
2022-12-15T14:30:29.345Z,22.15
2022-12-15T14:33:12.513Z,22.67
2022-12-15T14:38:45.269Z,23.45
2022-12-15T14:41:23.171Z,23.90
2022-12-15T14:46:38.898Z,26.10
2022-12-15T14:49:08.765Z,26.48
2022-12-15T14:51:46.215Z,22.40
2022-12-15T14:54:38.433Z,21.17
2022-12-15T14:57:20.026Z,23.30
2022-12-15T14:59:48.512Z,26.50
2022-12-15T15:02:26.612Z,26.38
2022-12-15T15:03:14.381Z,23.70
2022-12-15T15:05:05.476Z,23.30
2022-12-15T15:07:32.992Z,21.80
2022-12-15T15:10:01.341Z,23.02
2022-12-15T15:12:46.044Z,24.27
2022-12-15T15:15:18.565Z,24.08
2022-12-15T15:17:58.409Z,22.92
2022-12-15T15:20:27.998Z,20.92
2022-12-15T15:23:16.648Z,23.55
2022-12-15T15:25:54.898Z,22.13
2022-12-15T15:28:27.597Z,24.88
2022-12-15T15:30:57.555Z,24.65
2022-12-15T15:33:25.253Z,23.75
2022-12-15T15:35:55.039Z,22.67
2022-12-15T15:38:37.900Z,22.27
2022-12-15T15:43:47.696Z,17.90
2022-12-15T15:46:16.630Z,29.40
2022-12-15T15:48:46.548Z,34.80
2022-12-15T15:51:14.163Z,33.25
2022-12-15T15:53:41.153Z,34.03
2022-12-15T15:56:12.263Z,28.80
2022-12-15T15:58:38.813Z,35.72
2022-12-15T16:01:11.183Z,34.05
2022-12-15T16:03:39.662Z,33.55
2022-12-15T16:06:13.996Z,37.30
2022-12-15T16:08:40.594Z,33.63
2022-12-15T16:11:11.130Z,33.15
2022-12-15T16:13:39.030Z,40.83
2022-12-15T16:16:06.479Z,37.60
2022-12-15T16:18:33.413Z,36.00
2022-12-15T16:21:00.245Z,39.65
2022-12-15T16:23:28.403Z,45.13
2022-12-15T16:26:00.212Z,40.97
2022-12-15T16:28:30.367Z,36.90
2022-12-15T16:30:58.769Z,38.05
2022-12-15T16:33:25.677Z,37.47
2022-12-15T16:35:53.315Z,35.58
2022-12-15T16:38:24.308Z,33.42
2022-12-15T16:40:51.651Z,31.25
2022-12-15T16:43:22.286Z,32.80
2022-12-15T16:45:51.169Z,30.58
2022-12-15T16:48:18.412Z,28.80
2022-12-15T16:50:51.949Z,27.83
2022-12-15T16:53:37.577Z,25.23
2022-12-15T16:56:06.462Z,25.75
2022-12-15T16:58:35.974Z,28.83
2022-12-15T17:01:03.887Z,28.80
2022-12-15T17:03:30.993Z,26.90
2022-12-15T17:06:00.988Z,33.90
2022-12-15T17:08:38.498Z,47.45
2022-12-15T17:11:05.252Z,43.70
2022-12-15T17:13:39.083Z,40.40
2022-12-15T17:16:06.518Z,32.75
2022-12-15T17:18:34.069Z,33.78
2022-12-15T17:21:06.812Z,44.58
2022-12-15T17:26:22.527Z,40.47
2022-12-15T17:28:48.962Z,36.30
2022-12-15T17:31:21.332Z,35.65
2022-12-15T17:33:48.865Z,36.15
2022-12-15T17:36:19.947Z,33.97
2022-12-15T17:38:48.555Z,37.67
2022-12-15T17:41:35.161Z,34.70
2022-12-15T17:44:31.503Z,35.75
2022-12-15T17:46:49.576Z,33.15
2022-12-15T17:49:16.309Z,35.95
2022-12-15T17:51:44.331Z,34.55
2022-12-15T17:54:16.343Z,34.22
2022-12-15T17:56:45.635Z,25.58
2022-12-15T17:59:17.889Z,34.42
2022-12-15T18:01:44.475Z,42.80
2022-12-15T18:04:11.668Z,40.03
2022-12-15T18:06:43.411Z,55.47
2022-12-15T18:09:16.067Z,48.77
2022-12-15T18:11:45.144Z,37.05
2022-12-15T18:14:21.041Z,35.97
2022-12-15T18:16:47.583Z,32.55
2022-12-15T18:19:14.962Z,35.17
2022-12-15T18:21:41.663Z,34.25
2022-12-15T18:24:17.421Z,31.25
2022-12-15T18:26:44.990Z,29.95
2022-12-15T18:29:14.106Z,27.77
2022-12-15T18:31:41.742Z,32.42
2022-12-15T18:34:19.257Z,32.92
2022-12-15T18:36:46.861Z,30.52
2022-12-15T18:39:24.004Z,31.00
2022-12-15T18:41:51.582Z,32.28
2022-12-15T18:44:26.921Z,29.27
2022-12-15T18:46:55.377Z,31.10
2022-12-15T18:49:23.166Z,33.72
2022-12-15T18:51:50.252Z,31.23
2022-12-15T18:54:20.066Z,31.08
2022-12-15T18:56:46.976Z,32.30
2022-12-15T18:59:17.446Z,34.65
2022-12-15T19:01:48.929Z,31.08
2022-12-15T19:04:16.008Z,31.10
2022-12-15T19:06:44.288Z,34.42
2022-12-15T19:09:19.289Z,34.20
2022-12-15T19:12:08.936Z,33.85
2022-12-15T19:14:45.039Z,32.13
2022-12-15T19:17:35.994Z,31.40
2022-12-15T19:20:23.185Z,36.30
2022-12-15T19:22:50.243Z,44.15
2022-12-15T19:25:25.928Z,35.28
2022-12-15T19:27:58.757Z,34.33
2022-12-15T19:30:31.031Z,31.40
2022-12-15T19:32:57.828Z,29.08
2022-12-15T19:35:27.201Z,28.55
2022-12-15T19:37:57.119Z,29.15
2022-12-15T19:40:30.336Z,29.38
2022-12-15T19:42:58.213Z,32.13
2022-12-15T19:45:30.744Z,32.70
2022-12-15T19:47:57.512Z,31.40
2022-12-15T19:50:27.886Z,27.98
2022-12-15T19:53:03.646Z,30.20
2022-12-15T19:55:33.112Z,29.55
2022-12-15T19:58:00.797Z,31.80
2022-12-15T20:00:27.469Z,28.75
2022-12-15T20:02:55.145Z,29.40
2022-12-15T20:05:24.682Z,27.67
2022-12-15T20:07:54.854Z,29.00
2022-12-15T20:10:31.977Z,27.98
2022-12-15T20:13:00.487Z,27.02
2022-12-15T20:15:27.545Z,29.55
2022-12-15T20:17:57.662Z,26.67
2022-12-15T20:20:27.799Z,27.65
2022-12-15T20:22:57.478Z,25.65
2022-12-15T20:25:27.852Z,24.45
2022-12-15T20:27:54.562Z,25.90
2022-12-15T20:30:26.809Z,24.10
2022-12-15T20:32:53.620Z,25.05
2022-12-15T20:35:22.008Z,22.73
2022-12-15T20:37:49.839Z,21.80
2022-12-15T20:40:24.869Z,23.98
2022-12-15T20:42:52.758Z,24.77
2022-12-15T20:45:22.178Z,26.50
2022-12-15T20:47:50.904Z,33.55
2022-12-15T20:50:27.317Z,32.75
2022-12-15T20:52:55.066Z,31.13
2022-12-15T20:55:21.878Z,33.55
2022-12-15T20:57:48.724Z,29.25
2022-12-15T21:00:17.846Z,29.13
2022-12-15T21:02:45.753Z,28.58
2022-12-15T21:05:24.098Z,27.35
2022-12-15T21:07:51.542Z,32.75
2022-12-15T21:10:19.819Z,31.42
2022-12-15T21:12:50.401Z,27.80
2022-12-15T21:15:22.575Z,26.83
2022-12-15T21:18:08.840Z,26.80
2022-12-15T21:20:41.316Z,26.40
2022-12-15T21:23:27.314Z,35.53
2022-12-15T21:25:55.631Z,33.67
2022-12-15T21:28:22.801Z,27.48
2022-12-15T21:30:49.675Z,26.05
2022-12-15T21:33:17.206Z,28.42
2022-12-15T21:35:46.547Z,27.20
2022-12-15T21:38:33.558Z,26.63
2022-12-15T21:41:02.899Z,27.33
2022-12-15T21:43:33.288Z,26.20
2022-12-15T21:46:01.796Z,27.17
2022-12-15T21:48:47.087Z,34.80
2022-12-15T21:51:16.863Z,28.58
2022-12-15T21:53:45.326Z,26.52
2022-12-15T21:56:20.096Z,25.05
2022-12-15T21:58:52.597Z,23.05
2022-12-15T22:01:24.482Z,23.83
2022-12-15T22:03:54.616Z,20.83
2022-12-15T22:06:26.365Z,22.10
2022-12-15T22:08:54.680Z,22.35
2022-12-15T22:11:27.206Z,23.35
2022-12-15T22:13:56.794Z,21.05
2022-12-15T22:16:23.840Z,22.55
2022-12-15T22:18:54.941Z,24.40
2022-12-15T22:21:23.373Z,25.60
2022-12-15T22:23:50.805Z,25.05
2022-12-15T22:26:39.642Z,23.77
2022-12-15T22:29:25.197Z,25.85
2022-12-15T22:31:52.025Z,29.10
2022-12-15T22:34:23.641Z,28.95
2022-12-15T22:36:50.627Z,29.37
2022-12-15T22:39:19.079Z,30.48
2022-12-15T22:41:50.133Z,29.55
2022-12-15T22:44:22.132Z,27.63
2022-12-15T22:46:50.109Z,27.45
2022-12-15T22:49:29.045Z,24.42
2022-12-15T22:51:55.581Z,25.52
2022-12-15T22:54:27.527Z,25.25
2022-12-15T22:56:59.182Z,19.40
2022-12-15T22:59:31.811Z,29.80
2022-12-15T23:01:59.954Z,28.52
2022-12-15T23:04:27.658Z,29.95
2022-12-15T23:06:54.203Z,31.38
2022-12-15T23:09:21.584Z,30.65
2022-12-15T23:11:48.292Z,32.85
2022-12-15T23:14:16.967Z,31.38
2022-12-15T23:16:45.493Z,31.80
2022-12-15T23:19:23.850Z,27.33
2022-12-15T23:21:51.741Z,30.70
2022-12-15T23:24:18.609Z,29.13
2022-12-15T23:26:45.181Z,28.98
2022-12-15T23:29:11.693Z,29.92
2022-12-15T23:31:38.318Z,28.40
2022-12-15T23:34:05.053Z,28.92
2022-12-15T23:36:31.522Z,28.75
2022-12-15T23:38:58.189Z,27.50
2022-12-15T23:41:24.994Z,28.42
2022-12-15T23:43:51.543Z,28.48
2022-12-15T23:46:18.682Z,26.83
2022-12-15T23:48:45.504Z,28.95
2022-12-15T23:51:17.759Z,28.92
2022-12-15T23:53:45.870Z,27.60
2022-12-15T23:56:18.616Z,27.50
2022-12-15T23:58:46.333Z,27.38
